Time;durP1;ratioP1;P1;durP2;ratioP2;P2;SDS_P1;SDS_P2;PMS_P1;PMS_P2;Temp;Humidity;BMP_temperature;BMP_pressure;BME280_temperature;BME280_humidity;BME280_pressure;Samples;Min_cycle;Max_cycle;Signal;HPM_P1;HPM_P2
2021/04/04 00:01:13;;;;;;;22.65;7.97;;;3.60;88.60;;;;;;5007151;28;20049;-70
2021/04/04 00:03:39;;;;;;;25.08;7.10;;;3.60;88.60;;;;;;5005978;28;20378;-70
2021/04/04 00:06:05;;;;;;;26.23;8.55;;;3.70;88.70;;;;;;5003637;28;20033;-71
2021/04/04 00:08:31;;;;;;;26.98;8.48;;;3.70;88.70;;;;;;5003807;28;20526;-70
2021/04/04 00:10:56;;;;;;;30.65;8.18;;;3.70;88.80;;;;;;5004837;28;20029;-68
2021/04/04 00:13:22;;;;;;;16.52;6.13;;;3.60;88.70;;;;;;5005978;28;20040;-70
2021/04/04 00:15:47;;;;;;;21.75;5.93;;;3.70;88.80;;;;;;5005715;28;20088;-70
2021/04/04 00:18:13;;;;;;;19.20;5.68;;;3.70;88.70;;;;;;5003713;28;20029;-69
2021/04/04 00:20:39;;;;;;;18.85;5.80;;;3.60;88.60;;;;;;5005416;28;20513;-70
2021/04/04 00:23:05;;;;;;;21.30;5.38;;;3.60;88.80;;;;;;5002726;28;20061;-69
2021/04/04 00:25:30;;;;;;;19.17;6.05;;;3.60;88.80;;;;;;5004039;28;20149;-69
2021/04/04 00:27:56;;;;;;;15.20;5.65;;;3.60;88.80;;;;;;5006345;28;20052;-70
2021/04/04 00:30:23;;;;;;;17.42;5.53;;;3.60;88.80;;;;;;5005741;28;20082;-70
2021/04/04 00:32:49;;;;;;;18.65;5.72;;;3.60;88.60;;;;;;5005211;28;20026;-70
2021/04/04 00:35:17;;;;;;;20.65;5.50;;;3.60;88.80;;;;;;5005590;28;20075;-69
2021/04/04 00:37:43;;;;;;;20.35;5.72;;;3.70;88.70;;;;;;5003345;28;20463;-70
2021/04/04 00:40:27;;;;;;;18.77;5.72;;;3.70;88.80;;;;;;5005538;28;20116;-69
2021/04/04 00:42:54;;;;;;;24.00;5.63;;;3.70;88.70;;;;;;5004422;28;20435;-69
2021/04/04 00:45:28;;;;;;;25.98;6.75;;;3.70;88.70;;;;;;5005928;28;20022;-70
2021/04/04 00:47:54;;;;;;;16.17;5.57;;;3.70;88.60;;;;;;5002224;28;20030;-69
2021/04/04 00:50:22;;;;;;;18.20;4.97;;;3.70;88.70;;;;;;5000361;28;20032;-70
2021/04/04 00:52:48;;;;;;;17.92;6.25;;;3.60;88.70;;;;;;5002957;28;20053;-71
2021/04/04 00:55:15;;;;;;;19.58;6.22;;;3.70;88.80;;;;;;5005310;28;20068;-70
2021/04/04 00:57:42;;;;;;;22.17;6.15;;;3.70;88.80;;;;;;5003037;28;20026;-70
2021/04/04 01:00:09;;;;;;;26.67;5.97;;;3.70;89.00;;;;;;5004838;28;20022;-68
2021/04/04 01:02:36;;;;;;;21.38;6.05;;;3.80;89.00;;;;;;5005075;28;20482;-71
2021/04/04 01:05:04;;;;;;;22.80;5.35;;;3.80;88.90;;;;;;5006361;28;20030;-69
2021/04/04 01:07:32;;;;;;;18.05;5.53;;;3.80;88.80;;;;;;5007290;28;20122;-70
2021/04/04 01:09:58;;;;;;;18.83;6.00;;;3.80;88.60;;;;;;5005223;28;20553;-69
2021/04/04 01:12:46;;;;;;;20.25;5.90;;;3.80;88.90;;;;;;5006160;28;20105;-69
2021/04/04 01:15:21;;;;;;;15.68;5.38;;;3.80;88.90;;;;;;5009829;28;20026;-72
2021/04/04 01:17:49;;;;;;;21.02;6.25;;;3.80;89.10;;;;;;5003765;28;20034;-69
2021/04/04 01:20:21;;;;;;;20.13;5.50;;;3.80;88.90;;;;;;5006305;28;20072;-69
2021/04/04 01:22:58;;;;;;;22.75;6.50;;;3.90;89.10;;;;;;5006434;28;20100;-69
2021/04/04 01:25:38;;;;;;;23.42;5.40;;;3.80;89.20;;;;;;5011499;28;20022;-73
2021/04/04 01:28:08;;;;;;;21.83;5.45;;;3.90;89.10;;;;;;4998714;28;20053;-68
2021/04/04 01:30:37;;;;;;;16.52;5.32;;;3.80;88.90;;;;;;5005138;28;20031;-69
2021/04/04 01:33:05;;;;;;;25.77;6.15;;;3.80;88.90;;;;;;5009573;28;20180;-71
2021/04/04 01:35:35;;;;;;;15.52;5.40;;;3.90;88.90;;;;;;5010052;28;20127;-70
2021/04/04 01:38:09;;;;;;;17.67;4.50;;;3.90;88.80;;;;;;5006974;28;20124;-69
2021/04/04 01:40:36;;;;;;;18.88;5.15;;;3.90;88.50;;;;;;5010803;28;20113;-71
2021/04/04 01:43:03;;;;;;;23.23;5.43;;;3.90;88.70;;;;;;5014052;28;20029;-72
2021/04/04 01:45:30;;;;;;;15.07;5.00;;;3.90;88.60;;;;;;5015039;28;20390;-70
2021/04/04 01:47:57;;;;;;;22.42;5.25;;;3.90;88.50;;;;;;5023988;28;20053;-70
2021/04/04 01:50:25;;;;;;;26.23;4.80;;;3.90;88.40;;;;;;5010581;28;20509;-70
2021/04/04 01:52:52;;;;;;;19.05;5.32;;;3.90;88.30;;;;;;5022402;28;20113;-69
2021/04/04 01:55:19;;;;;;;28.20;5.53;;;3.90;88.20;;;;;;5010853;28;20030;-70
2021/04/04 01:57:47;;;;;;;16.83;4.60;;;3.90;88.20;;;;;;5014911;28;20053;-71
2021/04/04 02:00:16;;;;;;;16.90;4.93;;;4.00;88.30;;;;;;5008681;28;20029;-70
2021/04/04 02:02:46;;;;;;;16.80;4.50;;;4.00;88.40;;;;;;5009234;28;20511;-69
2021/04/04 02:05:14;;;;;;;18.17;4.55;;;4.00;88.00;;;;;;5011698;28;20025;-69
2021/04/04 02:07:42;;;;;;;21.17;5.40;;;3.90;88.20;;;;;;5010674;28;20036;-70
2021/04/04 02:10:23;;;;;;;17.98;5.22;;;3.90;88.30;;;;;;5003223;28;20018;-68
2021/04/04 02:12:51;;;;;;;37.13;9.30;;;3.90;88.10;;;;;;5006706;28;20056;-69
2021/04/04 02:15:18;;;;;;;24.73;7.75;;;3.90;88.10;;;;;;5016603;28;20544;-69
2021/04/04 02:17:47;;;;;;;20.38;6.28;;;4.00;88.10;;;;;;5004822;28;20419;-69
2021/04/04 02:20:16;;;;;;;24.65;6.53;;;4.00;88.10;;;;;;5003790;28;20471;-70
2021/04/04 02:22:42;;;;;;;24.25;5.78;;;3.90;88.00;;;;;;5024345;28;20033;-68
2021/04/04 02:25:11;;;;;;;21.33;4.93;;;3.90;88.10;;;;;;5007486;28;20029;-69
2021/04/04 02:27:41;;;;;;;21.88;5.05;;;3.90;88.10;;;;;;5009640;28;20022;-70
2021/04/04 02:30:08;;;;;;;22.05;5.57;;;3.80;87.80;;;;;;5008840;28;20060;-69
2021/04/04 02:32:38;;;;;;;24.08;5.78;;;3.90;87.90;;;;;;5009950;28;20065;-70
2021/04/04 02:35:05;;;;;;;18.77;5.53;;;3.90;87.80;;;;;;5008301;28;20032;-69
2021/04/04 02:37:31;;;;;;;24.27;4.85;;;3.90;87.80;;;;;;5004743;28;20026;-70
2021/04/04 02:40:02;;;;;;;14.85;4.13;;;3.90;87.90;;;;;;5006907;28;20026;-71
2021/04/04 02:42:29;;;;;;;19.40;4.85;;;3.90;87.60;;;;;;5019870;28;20013;-70
2021/04/04 02:44:57;;;;;;;15.65;4.22;;;3.90;87.70;;;;;;5010519;28;20057;-70
2021/04/04 02:47:47;;;;;;;15.90;4.68;;;3.90;87.70;;;;;;5009220;28;20081;-71
2021/04/04 02:50:14;;;;;;;16.17;4.75;;;4.00;87.70;;;;;;5010935;28;20018;-70
2021/04/04 02:52:42;;;;;;;16.50;5.05;;;4.00;87.60;;;;;;5011111;28;20041;-70
2021/04/04 02:55:10;;;;;;;21.25;4.63;;;4.00;87.60;;;;;;5008112;28;20026;-70
2021/04/04 02:57:37;;;;;;;15.82;4.50;;;4.00;87.50;;;;;;5022334;28;20493;-70
2021/04/04 03:00:07;;;;;;;16.00;4.38;;;4.00;87.60;;;;;;5006769;28;20504;-71
2021/04/04 03:02:36;;;;;;;17.13;4.57;;;4.00;87.50;;;;;;5008036;28;20030;-71
2021/04/04 03:05:04;;;;;;;16.30;4.28;;;4.10;87.50;;;;;;5005502;28;20133;-72
2021/04/04 03:07:30;;;;;;;12.93;3.85;;;4.00;87.50;;;;;;5008955;28;20038;-70
2021/04/04 03:09:57;;;;;;;20.50;4.75;;;4.00;87.50;;;;;;5007696;28;20052;-71
2021/04/04 03:12:26;;;;;;;28.45;4.30;;;4.10;87.40;;;;;;5009795;28;20072;-69
2021/04/04 03:14:56;;;;;;;18.88;4.07;;;4.00;87.30;;;;;;5010701;28;20053;-71
2021/04/04 03:17:22;;;;;;;20.38;4.10;;;4.00;87.00;;;;;;5014450;28;20022;-70
2021/04/04 03:19:49;;;;;;;30.90;4.38;;;4.10;87.10;;;;;;5010359;28;20447;-69
2021/04/04 03:22:16;;;;;;;15.48;3.72;;;4.10;86.60;;;;;;5006215;28;20044;-70
2021/04/04 03:24:44;;;;;;;19.05;3.85;;;4.10;86.70;;;;;;5006279;28;20093;-71
2021/04/04 03:27:10;;;;;;;21.27;4.43;;;4.00;86.50;;;;;;5009046;28;20364;-71
2021/04/04 03:29:38;;;;;;;11.13;3.42;;;4.00;86.60;;;;;;5009994;28;20040;-70
2021/04/04 03:32:05;;;;;;;20.08;4.07;;;4.00;86.50;;;;;;5008033;28;20032;-71
2021/04/04 03:34:31;;;;;;;15.93;3.95;;;4.00;86.40;;;;;;5005685;28;20100;-71
2021/04/04 03:36:57;;;;;;;18.88;3.83;;;4.00;86.00;;;;;;5007878;28;20076;-71
2021/04/04 03:39:25;;;;;;;21.27;4.55;;;4.10;86.10;;;;;;5007361;28;20096;-70
2021/04/04 03:41:52;;;;;;;10.20;3.25;;;4.00;85.80;;;;;;5007968;28;20018;-70
2021/04/04 03:44:23;;;;;;;17.73;3.42;;;4.00;85.60;;;;;;5006650;28;20026;-70
2021/04/04 03:46:50;;;;;;;18.23;4.15;;;4.00;85.80;;;;;;5008429;28;20030;-72
2021/04/04 03:49:19;;;;;;;12.32;3.45;;;4.00;85.80;;;;;;5007761;28;20034;-70
2021/04/04 03:51:45;;;;;;;12.38;3.30;;;4.00;85.80;;;;;;5008706;28;20088;-70
2021/04/04 03:54:13;;;;;;;11.88;3.28;;;4.00;85.70;;;;;;5007074;28;20507;-71
2021/04/04 03:56:42;;;;;;;18.92;3.10;;;4.00;85.40;;;;;;5008993;28;20033;-69
2021/04/04 03:59:11;;;;;;;19.08;3.38;;;4.00;85.50;;;;;;5002541;28;20028;-69
2021/04/04 04:01:41;;;;;;;15.88;4.25;;;4.00;85.40;;;;;;5007085;28;20022;-70
2021/04/04 04:04:09;;;;;;;15.45;3.10;;;4.10;85.50;;;;;;5007661;28;20101;-70
2021/04/04 04:06:35;;;;;;;21.70;3.47;;;4.10;84.90;;;;;;5010273;28;20048;-70
2021/04/04 04:09:08;;;;;;;13.38;2.95;;;4.10;84.80;;;;;;5004796;28;20034;-71
2021/04/04 04:11:38;;;;;;;16.10;3.17;;;4.20;85.10;;;;;;5007670;28;20033;-71
2021/04/04 04:14:05;;;;;;;12.52;2.78;;;4.10;84.70;;;;;;5009733;28;20029;-69
2021/04/04 04:16:32;;;;;;;11.75;2.80;;;4.10;84.70;;;;;;5011753;28;20117;-72
2021/04/04 04:18:59;;;;;;;15.82;3.30;;;4.10;84.70;;;;;;5009512;28;20037;-71
2021/04/04 04:21:25;;;;;;;20.60;3.15;;;4.10;84.80;;;;;;5012906;28;20033;-70
2021/04/04 04:23:51;;;;;;;21.95;3.78;;;4.10;85.00;;;;;;5001885;28;20030;-71
2021/04/04 04:26:18;;;;;;;19.58;3.65;;;4.10;85.10;;;;;;5000601;28;20034;-70
2021/04/04 04:28:45;;;;;;;17.15;3.45;;;4.10;85.20;;;;;;5005439;28;20033;-70
2021/04/04 04:31:20;;;;;;;13.95;2.80;;;4.10;85.10;;;;;;5014442;28;20030;-70
2021/04/04 04:33:48;;;;;;;11.50;3.08;;;4.10;85.10;;;;;;5005383;28;20044;-70
2021/04/04 04:36:16;;;;;;;14.50;3.17;;;4.00;85.10;;;;;;5006985;28;20030;-70
2021/04/04 04:38:43;;;;;;;13.82;3.45;;;4.00;85.30;;;;;;5006155;28;20026;-69
2021/04/04 04:41:10;;;;;;;17.25;3.75;;;4.00;85.30;;;;;;5002772;28;20034;-72
2021/04/04 04:43:39;;;;;;;13.93;3.10;;;4.10;85.30;;;;;;5001435;28;20037;-70
2021/04/04 04:46:05;;;;;;;16.17;3.67;;;4.00;85.10;;;;;;5007656;28;20030;-72
2021/04/04 04:48:32;;;;;;;15.93;3.38;;;4.00;85.40;;;;;;5006834;28;20033;-70
2021/04/04 04:50:58;;;;;;;15.48;3.45;;;4.00;85.30;;;;;;5006577;28;20021;-71
2021/04/04 04:53:24;;;;;;;17.98;3.35;;;4.00;85.50;;;;;;4999452;28;20038;-70
2021/04/04 04:56:00;;;;;;;15.15;3.10;;;4.00;85.50;;;;;;5000330;28;20038;-71
2021/04/04 04:58:30;;;;;;;20.00;3.33;;;4.10;85.50;;;;;;4999235;28;20069;-71
2021/04/04 05:01:03;;;;;;;22.13;4.10;;;4.00;85.70;;;;;;5004139;28;20037;-72
2021/04/04 05:03:28;;;;;;;23.15;3.58;;;4.10;85.80;;;;;;4993669;28;20053;-70
2021/04/04 05:06:01;;;;;;;13.80;3.45;;;4.10;85.60;;;;;;4986501;28;20026;-71
2021/04/04 05:08:26;;;;;;;13.93;3.60;;;4.10;85.80;;;;;;4982457;28;20030;-71
2021/04/04 05:10:53;;;;;;;13.60;2.95;;;4.10;85.70;;;;;;4986251;28;20084;-69
2021/04/04 05:13:19;;;;;;;11.20;3.00;;;4.10;85.80;;;;;;4992821;28;20081;-73
2021/04/04 05:15:48;;;;;;;23.30;3.80;;;4.10;85.60;;;;;;4992114;28;20434;-70
2021/04/04 05:18:14;;;;;;;14.50;3.40;;;4.10;85.90;;;;;;4989583;28;20511;-72
2021/04/04 05:20:40;;;;;;;18.17;3.75;;;4.10;85.90;;;;;;4984403;28;20026;-71
2021/04/04 05:23:06;;;;;;;21.75;3.80;;;4.20;85.80;;;;;;4993318;28;20057;-71
2021/04/04 05:25:33;;;;;;;17.88;3.40;;;4.10;85.70;;;;;;4983412;28;20403;-71
2021/04/04 05:27:59;;;;;;;11.23;2.92;;;4.10;85.60;;;;;;4985835;28;20455;-70
2021/04/04 05:30:26;;;;;;;15.57;3.28;;;4.10;85.90;;;;;;4984566;28;20275;-71
2021/04/04 05:32:53;;;;;;;18.38;3.63;;;4.20;85.70;;;;;;4987113;28;20030;-71
2021/04/04 05:35:24;;;;;;;19.70;3.40;;;4.20;85.70;;;;;;4984545;28;20062;-70
2021/04/04 05:37:53;;;;;;;17.35;3.83;;;4.30;85.70;;;;;;4987681;28;20038;-70
2021/04/04 05:40:20;;;;;;;21.55;3.60;;;4.30;85.80;;;;;;4988715;28;20030;-70
2021/04/04 05:43:01;;;;;;;17.45;3.42;;;4.30;85.70;;;;;;4987559;28;20030;-70
2021/04/04 05:45:39;;;;;;;14.95;3.47;;;4.30;85.50;;;;;;4984703;28;20034;-71
2021/04/04 05:48:20;;;;;;;14.38;3.03;;;4.30;85.20;;;;;;4993947;28;20434;-70
2021/04/04 05:51:11;;;;;;;15.57;3.92;;;4.30;85.40;;;;;;4986350;28;20120;-69
2021/04/04 05:53:40;;;;;;;16.13;3.53;;;4.30;85.20;;;;;;4984753;28;20046;-71
2021/04/04 05:56:32;;;;;;;21.02;3.40;;;4.40;85.10;;;;;;4983250;28;20411;-71
2021/04/04 05:59:03;;;;;;;14.25;3.50;;;4.40;84.90;;;;;;4957697;28;20038;-71
2021/04/04 06:01:28;;;;;;;;;;;4.40;84.60;;;;;;4986904;28;20033;-70
2021/04/04 06:04:38;;;;;;;14.75;3.20;;;4.50;84.60;;;;;;4987313;28;20359;-71
2021/04/04 06:07:28;;;;;;;12.98;3.65;;;4.50;84.40;;;;;;4990534;28;20080;-70
2021/04/04 06:10:29;;;;;;;12.93;3.58;;;4.50;84.50;;;;;;4997398;28;20062;-71
2021/04/04 06:13:32;;;;;;;16.13;4.30;;;4.60;84.60;;;;;;4974825;28;20046;-70
2021/04/04 06:16:26;;;;;;;18.85;3.42;;;4.50;84.60;;;;;;4989145;28;20262;-70
2021/04/04 06:19:07;;;;;;;18.20;3.55;;;4.60;84.70;;;;;;4991624;28;20033;-72
2021/04/04 06:21:37;;;;;;;14.95;2.95;;;4.60;84.50;;;;;;4997818;28;20399;-70
2021/04/04 06:24:28;;;;;;;12.27;3.33;;;4.50;84.70;;;;;;4985190;28;20556;-69
2021/04/04 06:27:08;;;;;;;12.45;2.42;;;4.60;84.60;;;;;;4989462;28;20061;-71
2021/04/04 06:30:46;;;;;;;19.45;3.38;;;4.60;84.20;;;;;;4985093;28;20038;-72
2021/04/04 06:33:20;;;;;;;8.60;2.75;;;4.60;84.30;;;;;;4991070;28;20038;-71
2021/04/04 06:36:03;;;;;;;14.07;3.13;;;4.70;84.20;;;;;;4992367;28;20036;-70
2021/04/04 06:38:35;;;;;;;16.23;3.08;;;4.70;83.70;;;;;;4989306;28;20026;-71
2021/04/04 06:41:07;;;;;;;9.00;2.85;;;4.70;83.30;;;;;;4993584;28;20030;-71
2021/04/04 06:43:32;;;;;;;;;;;4.80;83.30;;;;;;4992550;28;20505;-70
2021/04/04 06:46:42;;;;;;;12.70;2.80;;;4.80;83.50;;;;;;4989042;28;19914;-70
2021/04/04 06:49:19;;;;;;;8.23;2.67;;;4.90;83.20;;;;;;4954350;28;20111;-71
2021/04/04 06:52:17;;;;;;;16.20;3.13;;;4.90;82.40;;;;;;4987720;28;20108;-71
2021/04/04 06:55:25;;;;;;;12.73;2.80;;;5.00;82.50;;;;;;4993419;28;20020;-70
2021/04/04 06:58:21;;;;;;;15.32;3.20;;;5.10;82.70;;;;;;4981968;28;20045;-70
2021/04/04 07:01:32;;;;;;;15.30;3.22;;;5.00;82.80;;;;;;4986201;28;20037;-71
2021/04/04 07:04:11;;;;;;;12.98;3.10;;;5.10;82.70;;;;;;4994479;28;20026;-71
2021/04/04 07:06:57;;;;;;;11.73;2.78;;;5.10;82.10;;;;;;4987360;28;20394;-71
2021/04/04 07:09:29;;;;;;;10.77;2.85;;;5.20;82.40;;;;;;4989473;28;20042;-71
2021/04/04 07:12:13;;;;;;;14.52;2.72;;;5.20;82.40;;;;;;4987695;28;20049;-71
2021/04/04 07:14:57;;;;;;;15.80;3.05;;;5.20;81.90;;;;;;4987117;28;20161;-70
2021/04/04 07:17:44;;;;;;;14.82;2.70;;;5.10;82.40;;;;;;4989723;28;20077;-71
2021/04/04 07:20:24;;;;;;;12.70;2.67;;;5.20;82.60;;;;;;4987402;28;20022;-69
2021/04/04 07:23:14;;;;;;;13.98;3.47;;;5.20;82.50;;;;;;4990330;28;20025;-70
2021/04/04 07:26:04;;;;;;;13.82;3.33;;;5.20;83.00;;;;;;4989019;28;20030;-70
2021/04/04 07:28:45;;;;;;;13.05;2.78;;;5.40;83.20;;;;;;4989038;28;20065;-69
2021/04/04 07:31:13;;;;;;;10.50;3.13;;;5.30;83.20;;;;;;4992407;28;20030;-71
2021/04/04 07:33:53;;;;;;;13.55;2.83;;;5.30;83.20;;;;;;4991140;28;20502;-71
2021/04/04 07:36:50;;;;;;;15.05;3.13;;;5.20;83.40;;;;;;4988029;28;20034;-71
2021/04/04 07:39:31;;;;;;;14.07;3.70;;;5.30;83.80;;;;;;4984698;28;20080;-71
2021/04/04 07:42:00;;;;;;;;;;;5.40;84.80;;;;;;4989525;28;20087;-69
2021/04/04 07:44:50;;;;;;;15.43;3.47;;;5.40;85.00;;;;;;4987517;28;20229;-70
2021/04/04 07:47:39;;;;;;;10.68;2.83;;;5.60;84.60;;;;;;4988521;28;20514;-70
2021/04/04 07:50:05;;;;;;;12.57;3.35;;;5.40;84.90;;;;;;4985446;28;20074;-70
2021/04/04 07:52:43;;;;;;;10.70;3.42;;;5.40;85.50;;;;;;4987473;28;20057;-71
2021/04/04 07:55:19;;;;;;;10.13;3.95;;;5.30;85.80;;;;;;4986696;28;20269;-70
2021/04/04 07:57:50;;;;;;;15.70;4.40;;;5.30;86.30;;;;;;4987636;28;20397;-71
2021/04/04 08:00:17;;;;;;;8.57;3.10;;;5.20;87.40;;;;;;4985411;28;20084;-70
2021/04/04 08:02:54;;;;;;;16.35;4.13;;;5.10;88.40;;;;;;4988222;28;20062;-70
2021/04/04 08:05:25;;;;;;;13.07;4.47;;;5.00;89.30;;;;;;4986285;28;20052;-70
2021/04/04 08:07:56;;;;;;;14.35;4.65;;;5.00;90.20;;;;;;4980283;28;20030;-70
2021/04/04 08:10:57;;;;;;;12.93;4.45;;;4.80;90.40;;;;;;4978818;28;20093;-70
2021/04/04 08:14:02;;;;;;;15.60;4.13;;;5.00;90.70;;;;;;4983229;28;20130;-69
2021/04/04 08:16:48;;;;;;;10.95;4.20;;;5.10;91.30;;;;;;4985476;28;20124;-70
2021/04/04 08:19:14;;;;;;;8.38;3.85;;;5.10;90.90;;;;;;4987093;28;20029;-73
2021/04/04 08:21:40;;;;;;;13.35;3.40;;;5.10;90.60;;;;;;4984168;28;20184;-70
2021/04/04 08:24:31;;;;;;;10.30;3.50;;;5.00;90.50;;;;;;4990712;28;20109;-71
2021/04/04 08:27:21;;;;;;;9.23;3.58;;;5.00;90.90;;;;;;4987327;28;20038;-71
2021/04/04 08:29:51;;;;;;;11.02;3.63;;;5.10;90.80;;;;;;4986346;28;20042;-74
2021/04/04 08:32:29;;;;;;;10.52;3.88;;;5.10;91.10;;;;;;4988201;28;20505;-72
2021/04/04 08:34:59;;;;;;;10.95;4.28;;;5.10;91.20;;;;;;4984133;28;20022;-71
2021/04/04 08:37:32;;;;;;;13.68;4.60;;;5.20;91.00;;;;;;4986050;28;20030;-71
2021/04/04 08:40:01;;;;;;;10.73;4.82;;;5.20;90.20;;;;;;4985828;28;20036;-71
2021/04/04 08:42:29;;;;;;;11.60;4.65;;;5.30;90.30;;;;;;4992894;28;20029;-72
2021/04/04 08:45:04;;;;;;;40.50;20.85;;;5.40;90.30;;;;;;4985331;28;20077;-71
2021/04/04 08:47:32;;;;;;;14.73;9.18;;;5.50;90.10;;;;;;4984605;28;20066;-71
2021/04/04 08:50:00;;;;;;;14.45;6.35;;;5.60;89.60;;;;;;4984653;28;20053;-71
2021/04/04 08:52:31;;;;;;;13.10;5.53;;;5.50;89.30;;;;;;4986654;28;20026;-69
2021/04/04 08:54:57;;;;;;;16.60;5.45;;;5.50;89.30;;;;;;4984886;28;20057;-72
2021/04/04 08:57:46;;;;;;;16.75;5.60;;;5.40;89.00;;;;;;4990015;28;20502;-73
2021/04/04 09:00:12;;;;;;;14.75;5.25;;;5.40;89.80;;;;;;4984590;28;20031;-71
2021/04/04 09:02:45;;;;;;;15.73;5.57;;;5.40;90.30;;;;;;4988312;28;20045;-71
2021/04/04 09:05:13;;;;;;;13.70;5.32;;;5.50;89.70;;;;;;4986557;28;20031;-72
2021/04/04 09:07:45;;;;;;;12.73;4.88;;;5.30;89.30;;;;;;5001394;28;20116;-70
2021/04/04 09:10:14;;;;;;;11.80;5.25;;;5.30;89.90;;;;;;4985631;28;20041;-72
2021/04/04 09:12:41;;;;;;;11.77;5.30;;;5.40;89.60;;;;;;4994689;28;20394;-72
2021/04/04 09:15:12;;;;;;;21.20;5.95;;;5.50;89.90;;;;;;4984729;28;20049;-71
2021/04/04 09:17:47;;;;;;;14.45;5.18;;;5.50;89.50;;;;;;4985165;28;20038;-71
2021/04/04 09:20:13;;;;;;;14.10;5.40;;;5.60;89.00;;;;;;4985757;28;20392;-71
2021/04/04 09:22:48;;;;;;;15.48;5.43;;;5.60;89.00;;;;;;4986315;28;20027;-72
2021/04/04 09:25:15;;;;;;;12.88;4.72;;;5.60;88.70;;;;;;4985867;28;20384;-72
2021/04/04 09:27:43;;;;;;;17.40;5.80;;;5.60;88.30;;;;;;4985898;28;20069;-72
2021/04/04 09:30:22;;;;;;;15.32;5.45;;;5.60;87.50;;;;;;4985899;28;20030;-71
2021/04/04 09:32:59;;;;;;;15.35;5.63;;;5.80;87.80;;;;;;4993194;28;20026;-71
2021/04/04 09:35:25;;;;;;;10.52;4.95;;;5.80;87.40;;;;;;4984233;28;20069;-72
2021/04/04 09:37:57;;;;;;;13.52;5.13;;;5.80;86.90;;;;;;4984259;28;20088;-72
2021/04/04 09:40:23;;;;;;;13.55;5.57;;;5.80;86.50;;;;;;4980002;28;20080;-70
2021/04/04 09:42:49;;;;;;;14.10;5.20;;;5.80;86.80;;;;;;4984517;28;20023;-73
2021/04/04 09:45:18;;;;;;;11.15;4.35;;;5.90;86.40;;;;;;4986545;28;20037;-71
2021/04/04 09:47:45;;;;;;;11.15;5.38;;;5.90;86.60;;;;;;4987547;28;20042;-69
2021/04/04 09:50:29;;;;;;;12.93;5.13;;;5.90;86.40;;;;;;4984706;28;20038;-71
2021/04/04 09:52:57;;;;;;;12.05;5.30;;;5.80;86.60;;;;;;4990572;28;20038;-72
2021/04/04 09:55:24;;;;;;;12.15;4.47;;;5.90;86.50;;;;;;4979942;28;20034;-73
2021/04/04 09:57:55;;;;;;;13.38;4.60;;;6.00;85.40;;;;;;4991563;28;20057;-68
2021/04/04 10:00:34;;;;;;;14.05;4.63;;;6.20;85.70;;;;;;4983135;28;20089;-70
2021/04/04 10:03:17;;;;;;;10.98;4.68;;;5.90;85.30;;;;;;4987941;28;20022;-71
2021/04/04 10:05:48;;;;;;;16.70;5.03;;;6.10;85.30;;;;;;4990253;28;20026;-70
2021/04/04 10:08:16;;;;;;;9.10;4.22;;;6.10;85.40;;;;;;4999275;28;20031;-69
2021/04/04 10:10:49;;;;;;;13.07;4.40;;;6.00;85.10;;;;;;4990552;28;20096;-70
2021/04/04 10:13:17;;;;;;;11.43;4.75;;;6.00;84.90;;;;;;4989220;28;20026;-69
2021/04/04 10:15:44;;;;;;;12.75;4.45;;;6.10;84.90;;;;;;4990858;28;20023;-71
2021/04/04 10:18:10;;;;;;;11.13;4.57;;;6.20;84.60;;;;;;4987387;28;20041;-71
2021/04/04 10:20:48;;;;;;;11.68;4.45;;;6.40;84.20;;;;;;4998996;28;20041;-71
2021/04/04 10:23:15;;;;;;;10.98;4.00;;;6.30;83.20;;;;;;4988454;28;20041;-70
2021/04/04 10:26:02;;;;;;;15.40;5.32;;;6.30;83.50;;;;;;4984560;28;20144;-70
2021/04/04 10:28:59;;;;;;;15.38;4.68;;;6.50;82.90;;;;;;4980012;28;20127;-71
2021/04/04 10:31:25;;;;;;;9.20;4.22;;;6.60;83.00;;;;;;4984938;28;20037;-70
2021/04/04 10:34:03;;;;;;;16.27;4.90;;;6.60;82.50;;;;;;4986231;28;20030;-71
2021/04/04 10:36:29;;;;;;;11.50;4.45;;;6.50;82.30;;;;;;4984760;28;20176;-70
2021/04/04 10:38:56;;;;;;;10.23;3.80;;;6.50;82.70;;;;;;4988663;28;20275;-70
2021/04/04 10:41:28;;;;;;;12.55;4.68;;;6.50;82.30;;;;;;4990167;28;20018;-70
2021/04/04 10:43:54;;;;;;;11.27;4.22;;;6.40;82.00;;;;;;4988482;28;20429;-71
2021/04/04 10:46:30;;;;;;;12.70;3.90;;;6.60;82.20;;;;;;4986174;28;20061;-71
2021/04/04 10:49:02;;;;;;;12.27;4.32;;;6.90;81.30;;;;;;4980204;28;20045;-69
2021/04/04 10:51:30;;;;;;;13.70;4.18;;;6.70;80.90;;;;;;4996463;28;20436;-70
2021/04/04 10:53:59;;;;;;;12.60;4.25;;;6.80;81.10;;;;;;4988273;28;20026;-70
2021/04/04 10:56:25;;;;;;;11.43;4.55;;;6.80;80.90;;;;;;4993194;28;20541;-69
2021/04/04 10:58:51;;;;;;;12.85;3.58;;;7.00;80.40;;;;;;4990924;28;20113;-70
2021/04/04 11:01:17;;;;;;;12.07;4.25;;;6.90;80.20;;;;;;4991932;28;20353;-70
2021/04/04 11:03:44;;;;;;;14.18;3.53;;;6.80;79.20;;;;;;4994140;28;20037;-70
2021/04/04 11:06:12;;;;;;;11.98;4.38;;;6.80;79.10;;;;;;4986499;28;20058;-72
2021/04/04 11:08:40;;;;;;;13.95;4.50;;;6.90;79.20;;;;;;4988785;28;20030;-69
2021/04/04 11:11:07;;;;;;;12.57;4.40;;;6.70;79.80;;;;;;4983701;28;20049;-70
2021/04/04 11:13:34;;;;;;;11.00;4.47;;;6.80;79.80;;;;;;4989119;28;20026;-71
2021/04/04 11:16:06;;;;;;;12.95;4.93;;;6.90;79.90;;;;;;4980581;28;20023;-69
2021/04/04 11:18:33;;;;;;;9.38;4.07;;;6.80;80.00;;;;;;4987554;28;20058;-71
2021/04/04 11:21:06;;;;;;;11.90;4.25;;;6.90;79.70;;;;;;4985423;28;20030;-70
2021/04/04 11:23:34;;;;;;;14.20;4.10;;;7.00;79.60;;;;;;4981738;28;20022;-71
2021/04/04 11:25:59;;;;;;;13.70;4.18;;;6.90;78.70;;;;;;4981487;28;20165;-69
2021/04/04 11:28:26;;;;;;;10.60;3.92;;;7.00;78.90;;;;;;4988711;28;20112;-69
2021/04/04 11:30:53;;;;;;;8.23;3.20;;;7.10;78.00;;;;;;4985484;28;20041;-70
2021/04/04 11:33:21;;;;;;;8.95;3.70;;;7.20;77.70;;;;;;4986010;28;20038;-72
2021/04/04 11:35:56;;;;;;;11.55;3.60;;;7.20;77.30;;;;;;4989425;28;20529;-70
2021/04/04 11:38:22;;;;;;;10.25;3.65;;;7.20;76.60;;;;;;4998912;28;20026;-69
2021/04/04 11:41:16;;;;;;;12.38;4.65;;;7.10;76.80;;;;;;4984586;28;20451;-70
2021/04/04 11:43:43;;;;;;;10.25;3.65;;;7.20;77.50;;;;;;4986286;28;20026;-70
2021/04/04 11:46:41;;;;;;;5.95;3.10;;;7.20;76.80;;;;;;4985332;28;20037;-69
2021/04/04 11:49:31;;;;;;;7.05;2.95;;;7.10;76.40;;;;;;4977061;28;20105;-70
2021/04/04 11:52:21;;;;;;;10.95;3.13;;;7.20;76.10;;;;;;4967489;28;20038;-69
2021/04/04 11:54:47;;;;;;;9.73;3.42;;;7.20;76.70;;;;;;4977272;28;20117;-70
2021/04/04 11:57:30;;;;;;;7.28;2.88;;;7.20;77.10;;;;;;4988904;28;20097;-70
2021/04/04 12:00:02;;;;;;;9.23;2.92;;;7.10;77.70;;;;;;4980872;28;20085;-70
2021/04/04 12:02:30;;;;;;;9.15;2.92;;;7.10;78.40;;;;;;4967580;28;20041;-70
2021/04/04 12:05:01;;;;;;;9.35;2.67;;;7.10;78.30;;;;;;4983703;28;20085;-69
2021/04/04 12:07:27;;;;;;;8.55;2.47;;;7.00;78.00;;;;;;4987407;28;20018;-70
2021/04/04 12:09:54;;;;;;;6.20;2.00;;;7.00;77.80;;;;;;4979029;28;20406;-71
2021/04/04 12:12:20;;;;;;;7.68;3.35;;;7.00;77.80;;;;;;4983926;28;20041;-70
2021/04/04 12:14:56;;;;;;;5.15;2.10;;;7.10;77.70;;;;;;4987430;28;20038;-70
2021/04/04 12:17:29;;;;;;;5.95;2.22;;;7.30;76.50;;;;;;4985011;28;20022;-71
2021/04/04 12:19:56;;;;;;;6.07;2.35;;;7.50;75.40;;;;;;4987003;28;20213;-71
2021/04/04 12:22:37;;;;;;;9.80;2.50;;;7.60;74.90;;;;;;4981452;28;20030;-70
2021/04/04 12:25:04;;;;;;;;;;;7.70;74.40;;;;;;4985572;28;20026;-71
2021/04/04 12:27:30;;;;;;;8.43;2.70;;;7.70;73.90;;;;;;4985777;28;20321;-71
2021/04/04 12:29:57;;;;;;;10.77;3.53;;;7.50;74.50;;;;;;4982045;28;20022;-71
2021/04/04 12:32:24;;;;;;;6.75;2.60;;;7.50;74.80;;;;;;4985140;28;20042;-73
2021/04/04 12:34:52;;;;;;;9.82;2.78;;;7.40;75.60;;;;;;4984758;28;20038;-70
2021/04/04 12:37:19;;;;;;;10.60;2.65;;;7.30;75.70;;;;;;4989128;28;20045;-70
2021/04/04 12:39:45;;;;;;;7.53;2.47;;;7.30;75.70;;;;;;4984325;28;20169;-70
2021/04/04 12:42:13;;;;;;;7.40;2.67;;;7.20;76.40;;;;;;4988462;28;20030;-71
2021/04/04 12:44:41;;;;;;;11.82;2.50;;;7.40;76.40;;;;;;4984018;28;20038;-69
2021/04/04 12:47:11;;;;;;;12.55;3.05;;;7.40;76.40;;;;;;4985649;28;20565;-69
2021/04/04 12:49:38;;;;;;;9.65;2.58;;;7.40;76.30;;;;;;4982529;28;20038;-70
2021/04/04 12:52:05;;;;;;;8.45;2.75;;;7.30;75.70;;;;;;4984118;28;20112;-71
2021/04/04 12:54:31;;;;;;;6.95;2.38;;;7.40;75.70;;;;;;4984459;28;20035;-71
2021/04/04 12:56:57;;;;;;;9.93;3.13;;;7.40;75.20;;;;;;4986431;28;20072;-70
2021/04/04 12:59:23;;;;;;;9.38;2.80;;;7.40;75.80;;;;;;4983455;28;20030;-69
2021/04/04 13:01:53;;;;;;;9.23;2.53;;;7.30;76.40;;;;;;4983999;28;20022;-69
2021/04/04 13:04:21;;;;;;;8.65;3.03;;;7.30;76.90;;;;;;4984474;28;20031;-71
2021/04/04 13:06:47;;;;;;;12.05;3.38;;;7.20;77.30;;;;;;4986986;28;20515;-72
2021/04/04 13:09:14;;;;;;;14.77;5.20;;;7.10;77.20;;;;;;4978362;28;20121;-69
2021/04/04 13:11:40;;;;;;;17.02;4.35;;;7.20;76.90;;;;;;4986467;28;20507;-70
2021/04/04 13:14:07;;;;;;;9.82;3.60;;;7.60;76.30;;;;;;4983708;28;20049;-71